This is the latest recevied weather packets stored in our database for station/object KO6SRA-13. If no packets are shown the sender has not sent any weather packets the latest 10 day(s).
| Time | Temp. | Humidity | Pressure | Rain* | Wind** | Luminosity | Snow |
|---|---|---|---|---|---|---|---|
| 1787696419 | 21.11° C | 69% | 1017.7 hPa | 0 mm | - | 593 W/m² | - |
| 1787696114 | 20.56° C | 72% | 1017.8 hPa | 0 mm | - | 603 W/m² | - |
| 1787695813 | 20.56° C | 71% | 1018 hPa | 0 mm | - | 621 W/m² | - |
| 1787695509 | 20.56° C | 72% | 1018 hPa | 0 mm | - | 615 W/m² | - |
| 1787695205 | 21.11° C | 70% | 1018 hPa | 0 mm | - | 613 W/m² | - |
| 1787694903 | 20.56° C | 70% | 1017.9 hPa | 0 mm | - | 617 W/m² | - |
| 1787694599 | 21.11° C | 68% | 1017.9 hPa | 0 mm | - | 608 W/m² | - |
| 1787694298 | 21.11° C | 70% | 1018 hPa | 0 mm | - | 615 W/m² | - |
| 1787693994 | 21.11° C | 70% | 1017.8 hPa | 0 mm | - | 626 W/m² | - |
| 1787693689 | 21.11° C | 70% | 1017.9 hPa | 0 mm | - | 638 W/m² | - |
| 1787693385 | 20.56° C | 70% | 1018.1 hPa | 0 mm | - | 623 W/m² | - |
| 1787693081 | 21.67° C | 68% | 1018 hPa | 0 mm | - | 640 W/m² | - |
| 1787692778 | 22.22° C | 66% | 1018 hPa | 0 mm | - | 658 W/m² | - |
| 1787692478 | 22.78° C | 64% | 1018.1 hPa | 0 mm | - | 661 W/m² | - |
| 1787692178 | 22.22° C | 66% | 1018 hPa | 0 mm | - | 665 W/m² | - |
| 1787691877 | 22.22° C | 65% | 1018 hPa | 0 mm | - | 677 W/m² | - |
| 1787691576 | 21.67° C | 65% | 1018 hPa | 0 mm | - | 683 W/m² | - |
| 1787691275 | 21.67° C | 67% | 1018.1 hPa | 0 mm | - | 678 W/m² | - |
| 1787690970 | 22.22° C | 64% | 1018 hPa | 0 mm | - | 665 W/m² | - |
| 1787690670 | 22.22° C | 64% | 1018.2 hPa | 0 mm | - | 674 W/m² | - |
| 1787690365 | 22.22° C | 65% | 1018 hPa | 0 mm | - | 698 W/m² | - |
| 1787690061 | 21.67° C | 65% | 1018 hPa | 0 mm | - | 712 W/m² | - |
| 1787689757 | 22.22° C | 64% | 1018.1 hPa | 0 mm | - | 713 W/m² | - |
| 1787689453 | 22.78° C | 61% | 1018.2 hPa | 0 mm | - | 708 W/m² | - |
| 1787689152 | 22.78° C | 63% | 1018 hPa | 0 mm | - | 706 W/m² | - |
* Rain latest hour (hover to see other rain measurements)
** Current wind speed in m/s (hover to see current wind gust speed)